Long Beach, CA

1:06 AM PDT on September 18, 2014 (GMT -0700)
Long Beach | Change Station
CLOSE
Current Station
Airport
Location: Long Beach,
Elevation: 39 ft
Nearby Weather Stations
Active Advisory: Beach Hazard Statement Active Notice: Record Report

Elev 39 ft 33.81 °N, 118.15 °W | Updated 13 minutes ago

Clear
Clear
73 °F
Feels Like 73 °F
N
4
Wind Variable Wind from North

Today
High -- | Low -- °F
--% Chance of Precip.
Yesterday
High -- | Low -- °F
Precip. -- in
6:38 AM 6:54 PM
Waning Crescent, 29% visible
Pressure 29.79 in
Visibility 10.0 miles
Clouds Clear
Dew Point 57 °F
Humidity 57%
Rainfall 0.00 in
Snow Depth Not available.
UV 0 out of 12
Pollen 6.90 out of 12
Ozone Good
Flu Activity Not available.
METAR KLGB 180753Z AUTO 35003KT 10SM CLR 23/14 A2979 RMK AO2 SLP088 T02280139 403560228 TSNO

More Conditions Fewer Conditions

Pressure 29.79 in
Visibility 10.0 miles
Clouds Clear
Dew Point 57 °F
Humidity 57%
Rainfall 0.00 in
Snow Depth Not available.
UV 0 out of 12
Pollen 6.90 out of 12
Ozone Good
Flu Activity Not available.
METAR KLGB 180753Z AUTO 35003KT 10SM CLR 23/14 A2979 RMK AO2 SLP088 T02280139 403560228 TSNO

More Conditions Fewer Conditions

10-Day Weather Forecast

Almanac

Astronomy

Sep. 18, 2014 Rise Set
Actual Time 6:38 AM PDT 6:54 PM PDT
Civil Twilight 6:13 AM PDT 7:19 PM PDT
Nautical Twilight 5:43 AM PDT 7:48 PM PDT
Astronomical Twilight 5:14 AM PDT 8:18 PM PDT
Moon 1:45 AM PDT 3:39 PM PDT
Length of Visible Light 13h 06m
Length of Day
12h 16m
Tomorrow will be 2m 5s shorter.
Waning Crescent, 29% of the Moon is Illuminated
Today
Waning Crescent
Sep 24
New
Oct 1
First Quarter
Oct 8
Full
Oct 15
Last Quarter

Today's Extremes

State Highs State Lows

Community

WunderPhotos

Upload Photos

1,754,306 photos uploaded!

Nearby

Air Quality

  Air Quality AQ Index Pollutant
Current Good
OZONE
Thursday Good
PM10
Thursday Good
OZONE
Thursday Good
CO
Thursday Good
NO2

Snow Depth

Station Depth Elevation
Summit Meadow 0 in 9122 ft
Forestdale Creek 0 in 8029 ft
Spratt Creek 0 in 6200 ft
Adin Mountain 1 in 6200 ft
Tahoe City Cross 0 in 6750 ft

Earthquake Activity

City Distance Mag. Time & Date
La Quinta, California 100 miles 2.7 8:59 PM PDT
2014-09-15
Minimum magnitude displayed is 2.5.

Coastal Water Temperatures

Place Temperature
Santa Monica Pier 70.0 °F
Los Angeles, CA 68.0 °F
La Jolla, CA 71.1 °F

Nearby Weather Stations